sensor_id;sensor_type;location;lat;lon;timestamp;pressure;altitude;pressure_sealevel;temperature;humidity
37792;BME280;29527;55.766;37.570;2023-05-20T00:01:57;100828.72;;;12.09;44.62
37792;BME280;29527;55.766;37.570;2023-05-20T00:04:22;100833.97;;;12.11;44.63
37792;BME280;29527;55.766;37.570;2023-05-20T00:06:48;100833.97;;;12.11;44.36
37792;BME280;29527;55.766;37.570;2023-05-20T00:09:13;100825.59;;;12.15;44.32
37792;BME280;29527;55.766;37.570;2023-05-20T00:11:39;100821.94;;;12.16;43.82
37792;BME280;29527;55.766;37.570;2023-05-20T00:14:04;100796.16;;;12.01;43.97
37792;BME280;29527;55.766;37.570;2023-05-20T00:16:30;100822.69;;;12.18;43.95
37792;BME280;29527;55.766;37.570;2023-05-20T00:18:56;100800.16;;;12.08;44.17
37792;BME280;29527;55.766;37.570;2023-05-20T00:21:22;100820.66;;;12.22;44.13
37792;BME280;29527;55.766;37.570;2023-05-20T00:23:47;100832.13;;;12.24;44.21
37792;BME280;29527;55.766;37.570;2023-05-20T00:26:13;100829.00;;;12.30;44.40
37792;BME280;29527;55.766;37.570;2023-05-20T00:28:38;100827.81;;;12.22;44.74
37792;BME280;29527;55.766;37.570;2023-05-20T00:31:04;100823.66;;;12.17;44.96
37792;BME280;29527;55.766;37.570;2023-05-20T00:33:29;100823.88;;;12.14;44.92
37792;BME280;29527;55.766;37.570;2023-05-20T00:35:55;100831.28;;;12.11;45.70
37792;BME280;29527;55.766;37.570;2023-05-20T00:38:20;100829.56;;;12.10;45.49
37792;BME280;29527;55.766;37.570;2023-05-20T00:40:46;100824.41;;;12.06;45.70
37792;BME280;29527;55.766;37.570;2023-05-20T00:43:11;100824.31;;;12.08;45.75
37792;BME280;29527;55.766;37.570;2023-05-20T00:45:37;100825.91;;;12.11;45.93
37792;BME280;29527;55.766;37.570;2023-05-20T00:48:04;100826.78;;;12.11;45.55
37792;BME280;29527;55.766;37.570;2023-05-20T00:50:30;100824.84;;;12.13;45.51
37792;BME280;29527;55.766;37.570;2023-05-20T00:52:56;100827.53;;;12.13;45.42
37792;BME280;29527;55.766;37.570;2023-05-20T00:55:24;100831.94;;;12.14;45.40
37792;BME280;29527;55.766;37.570;2023-05-20T00:57:51;100826.78;;;12.11;45.29
37792;BME280;29527;55.766;37.570;2023-05-20T01:00:17;100825.81;;;12.12;45.58
37792;BME280;29527;55.766;37.570;2023-05-20T01:02:43;100822.47;;;12.09;45.82
37792;BME280;29527;55.766;37.570;2023-05-20T01:05:08;100818.81;;;12.10;46.26
37792;BME280;29527;55.766;37.570;2023-05-20T01:07:34;100820.00;;;12.05;46.27
37792;BME280;29527;55.766;37.570;2023-05-20T01:10:00;100821.50;;;12.10;46.20
37792;BME280;29527;55.766;37.570;2023-05-20T01:12:36;100815.16;;;12.11;46.61
37792;BME280;29527;55.766;37.570;2023-05-20T01:17:37;100831.25;;;11.98;47.27
37792;BME280;29527;55.766;37.570;2023-05-20T01:20:05;100829.09;;;11.90;47.59
37792;BME280;29527;55.766;37.570;2023-05-20T01:22:33;100824.81;;;11.87;47.75
37792;BME280;29527;55.766;37.570;2023-05-20T01:25:00;100819.34;;;11.89;48.02
37792;BME280;29527;55.766;37.570;2023-05-20T01:27:30;100833.63;;;11.89;48.07
37792;BME280;29527;55.766;37.570;2023-05-20T01:29:55;100826.41;;;11.90;48.17
37792;BME280;29527;55.766;37.570;2023-05-20T01:34:49;100834.38;;;11.91;48.61
37792;BME280;29527;55.766;37.570;2023-05-20T01:37:17;100822.56;;;11.81;48.62
37792;BME280;29527;55.766;37.570;2023-05-20T01:39:44;100819.13;;;11.79;48.81
37792;BME280;29527;55.766;37.570;2023-05-20T01:42:10;100828.13;;;11.91;48.80
37792;BME280;29527;55.766;37.570;2023-05-20T01:44:38;100830.94;;;11.89;48.80
37792;BME280;29527;55.766;37.570;2023-05-20T01:47:04;100833.50;;;11.91;48.92
37792;BME280;29527;55.766;37.570;2023-05-20T01:49:29;100844.91;;;11.95;49.08
37792;BME280;29527;55.766;37.570;2023-05-20T01:51:56;100842.44;;;11.91;49.38
37792;BME280;29527;55.766;37.570;2023-05-20T01:54:22;100846.06;;;11.90;49.28
37792;BME280;29527;55.766;37.570;2023-05-20T01:56:48;100846.81;;;11.92;49.49
37792;BME280;29527;55.766;37.570;2023-05-20T01:59:14;100841.47;;;11.92;49.41
37792;BME280;29527;55.766;37.570;2023-05-20T02:01:40;100842.53;;;11.90;49.38
37792;BME280;29527;55.766;37.570;2023-05-20T02:04:05;100842.66;;;11.88;49.74
37792;BME280;29527;55.766;37.570;2023-05-20T02:06:31;100835.56;;;11.87;49.55
37792;BME280;29527;55.766;37.570;2023-05-20T02:08:56;100836.53;;;11.86;50.16
37792;BME280;29527;55.766;37.570;2023-05-20T02:11:22;100839.00;;;11.89;50.00
37792;BME280;29527;55.766;37.570;2023-05-20T02:13:49;100830.94;;;11.89;50.47
37792;BME280;29527;55.766;37.570;2023-05-20T02:16:16;100839.00;;;11.89;50.42
37792;BME280;29527;55.766;37.570;2023-05-20T02:18:42;100836.84;;;11.95;50.33
37792;BME280;29527;55.766;37.570;2023-05-20T02:21:08;100839.53;;;11.95;50.31
37792;BME280;29527;55.766;37.570;2023-05-20T02:23:34;100833.41;;;11.92;50.44
37792;BME280;29527;55.766;37.570;2023-05-20T02:26:00;100841.56;;;11.91;50.50
37792;BME280;29527;55.766;37.570;2023-05-20T02:28:26;100844.16;;;11.92;50.67
37792;BME280;29527;55.766;37.570;2023-05-20T02:30:52;100846.38;;;11.99;50.51
37792;BME280;29527;55.766;37.570;2023-05-20T02:33:18;100838.06;;;12.03;50.54
37792;BME280;29527;55.766;37.570;2023-05-20T02:35:44;100824.16;;;11.97;50.68
37792;BME280;29527;55.766;37.570;2023-05-20T02:38:11;100832.56;;;12.05;50.55
37792;BME280;29527;55.766;37.570;2023-05-20T02:40:36;100840.94;;;12.13;50.77
37792;BME280;29527;55.766;37.570;2023-05-20T02:43:02;100835.56;;;12.13;50.24
37792;BME280;29527;55.766;37.570;2023-05-20T02:45:28;100828.50;;;12.12;50.46
37792;BME280;29527;55.766;37.570;2023-05-20T02:47:54;100832.66;;;12.16;50.54
37792;BME280;29527;55.766;37.570;2023-05-20T02:50:19;100829.75;;;12.19;50.46
37792;BME280;29527;55.766;37.570;2023-05-20T02:52:45;100833.41;;;12.18;50.62
37792;BME280;29527;55.766;37.570;2023-05-20T02:55:11;100832.34;;;12.21;50.81
37792;BME280;29527;55.766;37.570;2023-05-20T02:57:37;100826.97;;;12.21;50.70
37792;BME280;29527;55.766;37.570;2023-05-20T03:00:04;100838.47;;;12.23;50.86
37792;BME280;29527;55.766;37.570;2023-05-20T03:02:32;100843.94;;;12.22;50.86
37792;BME280;29527;55.766;37.570;2023-05-20T03:04:58;100840.19;;;12.24;50.94
37792;BME280;29527;55.766;37.570;2023-05-20T03:07:24;100840.28;;;12.23;50.94
37792;BME280;29527;55.766;37.570;2023-05-20T03:09:50;100835.56;;;12.26;51.13
37792;BME280;29527;55.766;37.570;2023-05-20T03:12:16;100837.69;;;12.34;50.66
37792;BME280;29527;55.766;37.570;2023-05-20T03:14:41;100838.22;;;12.39;50.86
37792;BME280;29527;55.766;37.570;2023-05-20T03:17:08;100848.00;;;12.40;50.86
37792;BME280;29527;55.766;37.570;2023-05-20T03:19:33;100835.00;;;12.34;51.03
37792;BME280;29527;55.766;37.570;2023-05-20T03:22:00;100845.63;;;12.35;51.18
37792;BME280;29527;55.766;37.570;2023-05-20T03:24:26;100840.16;;;12.37;51.18
37792;BME280;29527;55.766;37.570;2023-05-20T03:26:51;100833.91;;;12.37;51.20
37792;BME280;29527;55.766;37.570;2023-05-20T03:29:17;100838.97;;;12.41;51.21
37792;BME280;29527;55.766;37.570;2023-05-20T03:31:43;100835.84;;;12.34;51.52
37792;BME280;29527;55.766;37.570;2023-05-20T03:34:08;100838.03;;;12.29;51.60
37792;BME280;29527;55.766;37.570;2023-05-20T03:36:34;100840.41;;;12.21;51.94
37792;BME280;29527;55.766;37.570;2023-05-20T03:38:59;100838.25;;;12.26;52.08
37792;BME280;29527;55.766;37.570;2023-05-20T03:41:26;100838.34;;;12.25;51.98
37792;BME280;29527;55.766;37.570;2023-05-20T03:43:52;100803.38;;;12.13;51.67
37792;BME280;29527;55.766;37.570;2023-05-20T03:46:17;100831.88;;;12.40;51.72
37792;BME280;29527;55.766;37.570;2023-05-20T03:48:43;100839.81;;;12.55;51.54
37792;BME280;29527;55.766;37.570;2023-05-20T03:51:08;100839.44;;;12.59;51.43
37792;BME280;29527;55.766;37.570;2023-05-20T03:53:34;100836.66;;;12.61;51.01
37792;BME280;29527;55.766;37.570;2023-05-20T03:55:59;100834.38;;;12.68;51.22
37792;BME280;29527;55.766;37.570;2023-05-20T03:58:25;100834.78;;;12.74;51.25
37792;BME280;29527;55.766;37.570;2023-05-20T04:00:54;100835.59;;;12.88;50.70
37792;BME280;29527;55.766;37.570;2023-05-20T04:03:19;100838.97;;;13.03;50.47
37792;BME280;29527;55.766;37.570;2023-05-20T04:05:47;100799.03;;;12.85;50.14
37792;BME280;29527;55.766;37.570;2023-05-20T04:08:12;100837.53;;;13.10;50.26
37792;BME280;29527;55.766;37.570;2023-05-20T04:10:41;100843.78;;;13.11;50.43
37792;BME280;29527;55.766;37.570;2023-05-20T04:13:07;100842.97;;;12.97;50.55
37792;BME280;29527;55.766;37.570;2023-05-20T04:15:37;100838.16;;;12.89;50.83
37792;BME280;29527;55.766;37.570;2023-05-20T04:18:05;100843.44;;;12.91;50.99
37792;BME280;29527;55.766;37.570;2023-05-20T04:20:31;100812.66;;;12.71;51.03
37792;BME280;29527;55.766;37.570;2023-05-20T04:22:57;100842.44;;;12.92;51.16
37792;BME280;29527;55.766;37.570;2023-05-20T04:25:22;100837.06;;;12.92;50.97
37792;BME280;29527;55.766;37.570;2023-05-20T04:27:48;100838.47;;;12.98;51.04
37792;BME280;29527;55.766;37.570;2023-05-20T04:30:14;100844.59;;;13.11;50.66
37792;BME280;29527;55.766;37.570;2023-05-20T04:32:42;100842.38;;;13.29;50.17
37792;BME280;29527;55.766;37.570;2023-05-20T04:35:08;100842.66;;;13.38;49.99
37792;BME280;29527;55.766;37.570;2023-05-20T04:37:36;100837.69;;;13.44;49.69
37792;BME280;29527;55.766;37.570;2023-05-20T04:40:04;100846.28;;;13.61;49.71
37792;BME280;29527;55.766;37.570;2023-05-20T04:42:32;100841.03;;;13.71;49.27
37792;BME280;29527;55.766;37.570;2023-05-20T04:44:58;100848.41;;;13.80;48.87
37792;BME280;29527;55.766;37.570;2023-05-20T04:47:28;100846.97;;;13.87;48.88
37792;BME280;29527;55.766;37.570;2023-05-20T04:49:55;100846.22;;;13.85;49.33
37792;BME280;29527;55.766;37.570;2023-05-20T04:52:25;100846.75;;;14.02;48.89
37792;BME280;29527;55.766;37.570;2023-05-20T04:54:51;100844.41;;;14.09;48.72
37792;BME280;29527;55.766;37.570;2023-05-20T04:57:17;100824.44;;;14.11;48.29
37792;BME280;29527;55.766;37.570;2023-05-20T04:59:46;100834.72;;;14.40;47.96
37792;BME280;29527;55.766;37.570;2023-05-20T05:02:12;100828.34;;;14.53;47.37
37792;BME280;29527;55.766;37.570;2023-05-20T05:04:39;100835.44;;;14.76;47.17
37792;BME280;29527;55.766;37.570;2023-05-20T05:07:04;100832.97;;;14.85;46.82
37792;BME280;29527;55.766;37.570;2023-05-20T05:09:30;100817.47;;;14.98;46.23
37792;BME280;29527;55.766;37.570;2023-05-20T05:11:55;100824.69;;;15.30;45.43
37792;BME280;29527;55.766;37.570;2023-05-20T05:14:21;100792.25;;;15.20;45.20
37792;BME280;29527;55.766;37.570;2023-05-20T05:16:48;100823.38;;;15.67;44.90
37792;BME280;29527;55.766;37.570;2023-05-20T05:19:14;100829.66;;;15.89;44.34
37792;BME280;29527;55.766;37.570;2023-05-20T05:21:40;100823.69;;;16.26;43.62
37792;BME280;29527;55.766;37.570;2023-05-20T05:24:05;100807.41;;;16.47;42.86
37792;BME280;29527;55.766;37.570;2023-05-20T05:26:31;100821.09;;;16.65;42.48
37792;BME280;29527;55.766;37.570;2023-05-20T05:28:56;100815.88;;;16.84;42.03
37792;BME280;29527;55.766;37.570;2023-05-20T05:31:22;100815.91;;;17.03;41.76
37792;BME280;29527;55.766;37.570;2023-05-20T05:33:47;100820.34;;;17.24;41.43
37792;BME280;29527;55.766;37.570;2023-05-20T05:36:13;100826.44;;;17.56;40.60
37792;BME280;29527;55.766;37.570;2023-05-20T05:38:38;100811.09;;;17.84;39.95
37792;BME280;29527;55.766;37.570;2023-05-20T05:41:04;100807.50;;;18.03;39.34
37792;BME280;29527;55.766;37.570;2023-05-20T05:43:29;100813.09;;;18.30;38.92
37792;BME280;29527;55.766;37.570;2023-05-20T05:45:55;100807.72;;;18.48;38.40
37792;BME280;29527;55.766;37.570;2023-05-20T05:48:21;100778.56;;;18.78;37.58
37792;BME280;29527;55.766;37.570;2023-05-20T05:50:47;100802.25;;;19.48;36.39
37792;BME280;29527;55.766;37.570;2023-05-20T05:53:13;100799.97;;;19.88;35.81
37792;BME280;29527;55.766;37.570;2023-05-20T05:55:38;100808.97;;;20.15;34.88
37792;BME280;29527;55.766;37.570;2023-05-20T05:58:04;100800.91;;;20.48;34.18
37792;BME280;29527;55.766;37.570;2023-05-20T06:00:30;100805.31;;;21.01;33.75
37792;BME280;29527;55.766;37.570;2023-05-20T06:02:55;100799.53;;;21.62;32.54
37792;BME280;29527;55.766;37.570;2023-05-20T06:05:21;100805.66;;;22.29;31.18
37792;BME280;29527;55.766;37.570;2023-05-20T06:07:46;100806.88;;;22.89;30.11
37792;BME280;29527;55.766;37.570;2023-05-20T06:10:12;100805.75;;;23.30;29.64
37792;BME280;29527;55.766;37.570;2023-05-20T06:12:37;100807.19;;;23.79;28.97
37792;BME280;29527;55.766;37.570;2023-05-20T06:15:03;100805.25;;;24.55;27.67
37792;BME280;29527;55.766;37.570;2023-05-20T06:17:30;100809.41;;;25.31;26.57
37792;BME280;29527;55.766;37.570;2023-05-20T06:19:55;100807.00;;;25.72;26.03
37792;BME280;29527;55.766;37.570;2023-05-20T06:22:21;100806.41;;;26.05;25.47
37792;BME280;29527;55.766;37.570;2023-05-20T06:24:46;100813.63;;;26.55;24.85
37792;BME280;29527;55.766;37.570;2023-05-20T06:27:12;100807.47;;;26.59;24.79
37792;BME280;29527;55.766;37.570;2023-05-20T06:29:38;100812.03;;;26.32;24.56
37792;BME280;29527;55.766;37.570;2023-05-20T06:32:03;100821.34;;;26.31;24.42
37792;BME280;29527;55.766;37.570;2023-05-20T06:34:29;100799.00;;;26.05;24.86
37792;BME280;29527;55.766;37.570;2023-05-20T06:36:54;100803.16;;;26.30;24.64
37792;BME280;29527;55.766;37.570;2023-05-20T06:39:20;100820.31;;;26.45;24.35
37792;BME280;29527;55.766;37.570;2023-05-20T06:41:46;100822.66;;;26.48;24.12
37792;BME280;29527;55.766;37.570;2023-05-20T06:44:11;100808.28;;;27.35;23.69
37792;BME280;29527;55.766;37.570;2023-05-20T06:46:37;100816.94;;;27.79;22.50
37792;BME280;29527;55.766;37.570;2023-05-20T06:49:02;100810.72;;;28.25;21.90
37792;BME280;29527;55.766;37.570;2023-05-20T06:51:28;100810.00;;;28.49;21.48
37792;BME280;29527;55.766;37.570;2023-05-20T06:53:53;100810.88;;;29.14;20.69
37792;BME280;29527;55.766;37.570;2023-05-20T06:56:19;100820.09;;;30.40;19.42
37792;BME280;29527;55.766;37.570;2023-05-20T06:58:46;100815.28;;;30.17;19.10
37792;BME280;29527;55.766;37.570;2023-05-20T07:01:11;100807.00;;;30.97;18.92
37792;BME280;29527;55.766;37.570;2023-05-20T07:03:37;100800.75;;;31.68;18.02
37792;BME280;29527;55.766;37.570;2023-05-20T07:06:02;100803.78;;;33.01;16.79
37792;BME280;29527;55.766;37.570;2023-05-20T07:08:28;100801.84;;;34.81;15.00
37792;BME280;29527;55.766;37.570;2023-05-20T07:10:56;100804.00;;;35.34;14.89
37792;BME280;29527;55.766;37.570;2023-05-20T07:13:22;100809.31;;;35.35;14.50
37792;BME280;29527;55.766;37.570;2023-05-20T07:15:48;100812.41;;;35.06;14.51
37792;BME280;29527;55.766;37.570;2023-05-20T07:18:14;100804.69;;;33.75;15.10
37792;BME280;29527;55.766;37.570;2023-05-20T07:20:40;100803.84;;;33.23;15.96
37792;BME280;29527;55.766;37.570;2023-05-20T07:23:06;100791.78;;;33.46;15.18
37792;BME280;29527;55.766;37.570;2023-05-20T07:25:31;100793.00;;;34.12;14.54
37792;BME280;29527;55.766;37.570;2023-05-20T07:27:57;100800.22;;;33.74;14.54
37792;BME280;29527;55.766;37.570;2023-05-20T07:30:25;100801.50;;;33.15;14.86
37792;BME280;29527;55.766;37.570;2023-05-20T07:32:50;100798.69;;;32.52;15.02
37792;BME280;29527;55.766;37.570;2023-05-20T07:35:16;100770.91;;;31.46;16.28
37792;BME280;29527;55.766;37.570;2023-05-20T07:37:41;100802.00;;;30.26;16.85
37792;BME280;29527;55.766;37.570;2023-05-20T07:40:07;100800.06;;;30.26;16.59
37792;BME280;29527;55.766;37.570;2023-05-20T07:42:33;100794.00;;;29.80;16.48
37792;BME280;29527;55.766;37.570;2023-05-20T07:44:59;100786.72;;;30.23;15.92
37792;BME280;29527;55.766;37.570;2023-05-20T07:47:25;100803.81;;;30.69;15.67
37792;BME280;29527;55.766;37.570;2023-05-20T07:49:50;100793.53;;;31.67;15.12
37792;BME280;29527;55.766;37.570;2023-05-20T07:52:16;100787.31;;;30.44;15.70
37792;BME280;29527;55.766;37.570;2023-05-20T07:54:41;100793.31;;;28.31;17.93
37792;BME280;29527;55.766;37.570;2023-05-20T07:57:07;100790.31;;;27.46;18.65
37792;BME280;29527;55.766;37.570;2023-05-20T07:59:32;100777.66;;;28.70;17.29
37792;BME280;29527;55.766;37.570;2023-05-20T08:01:58;100790.78;;;30.39;16.18
37792;BME280;29527;55.766;37.570;2023-05-20T08:04:24;100777.16;;;31.77;14.92
37792;BME280;29527;55.766;37.570;2023-05-20T08:06:51;100791.00;;;31.89;14.32
37792;BME280;29527;55.766;37.570;2023-05-20T08:09:17;100776.19;;;31.24;14.66
37792;BME280;29527;55.766;37.570;2023-05-20T08:11:43;100767.41;;;30.54;15.29
37792;BME280;29527;55.766;37.570;2023-05-20T08:14:09;100779.78;;;29.76;16.09
37792;BME280;29527;55.766;37.570;2023-05-20T08:16:35;100798.06;;;29.01;16.87
37792;BME280;29527;55.766;37.570;2023-05-20T08:19:01;100792.94;;;28.20;18.19
37792;BME280;29527;55.766;37.570;2023-05-20T08:21:27;100793.28;;;27.58;18.91
37792;BME280;29527;55.766;37.570;2023-05-20T08:23:53;100783.03;;;26.78;19.51
37792;BME280;29527;55.766;37.570;2023-05-20T08:26:19;100795.09;;;25.86;21.01
37792;BME280;29527;55.766;37.570;2023-05-20T08:28:44;100778.56;;;25.22;21.77
37792;BME280;29527;55.766;37.570;2023-05-20T08:31:10;100758.44;;;24.87;21.83
37792;BME280;29527;55.766;37.570;2023-05-20T08:33:36;100773.88;;;24.36;22.17
37792;BME280;29527;55.766;37.570;2023-05-20T08:36:02;100788.16;;;24.01;23.57
37792;BME280;29527;55.766;37.570;2023-05-20T08:38:27;100793.00;;;23.61;24.13
37792;BME280;29527;55.766;37.570;2023-05-20T08:40:54;100792.34;;;22.97;24.69
37792;BME280;29527;55.766;37.570;2023-05-20T08:43:21;100792.53;;;22.64;25.33
37792;BME280;29527;55.766;37.570;2023-05-20T08:45:48;100793.75;;;22.61;25.46
37792;BME280;29527;55.766;37.570;2023-05-20T08:48:15;100794.22;;;22.65;25.86
37792;BME280;29527;55.766;37.570;2023-05-20T08:50:43;100799.34;;;22.28;26.36
37792;BME280;29527;55.766;37.570;2023-05-20T08:53:09;100796.78;;;21.87;26.91
37792;BME280;29527;55.766;37.570;2023-05-20T08:55:56;100802.41;;;21.69;26.77
37792;BME280;29527;55.766;37.570;2023-05-20T08:58:24;100792.56;;;21.01;27.79
37792;BME280;29527;55.766;37.570;2023-05-20T09:00:50;100789.41;;;20.71;28.52
37792;BME280;29527;55.766;37.570;2023-05-20T09:03:17;100776.75;;;20.29;29.16
37792;BME280;29527;55.766;37.570;2023-05-20T09:05:45;100779.72;;;20.09;29.69
37792;BME280;29527;55.766;37.570;2023-05-20T09:08:11;100796.03;;;20.09;29.96
37792;BME280;29527;55.766;37.570;2023-05-20T09:10:38;100810.09;;;20.04;30.38
37792;BME280;29527;55.766;37.570;2023-05-20T09:13:06;100814.00;;;20.02;30.73
37792;BME280;29527;55.766;37.570;2023-05-20T09:15:33;100803.44;;;19.99;31.09
37792;BME280;29527;55.766;37.570;2023-05-20T09:18:00;100804.50;;;20.06;30.77
37792;BME280;29527;55.766;37.570;2023-05-20T09:20:29;100797.94;;;20.17;30.46
37792;BME280;29527;55.766;37.570;2023-05-20T09:23:01;100802.94;;;20.38;30.20
37792;BME280;29527;55.766;37.570;2023-05-20T09:25:27;100774.38;;;20.34;30.15
37792;BME280;29527;55.766;37.570;2023-05-20T09:27:53;100805.34;;;20.49;29.94
37792;BME280;29527;55.766;37.570;2023-05-20T09:30:20;100797.84;;;20.35;30.47
37792;BME280;29527;55.766;37.570;2023-05-20T09:32:52;100773.97;;;20.20;30.20
37792;BME280;29527;55.766;37.570;2023-05-20T09:35:18;100802.88;;;20.21;29.62
37792;BME280;29527;55.766;37.570;2023-05-20T09:37:45;100808.25;;;20.05;30.37
37792;BME280;29527;55.766;37.570;2023-05-20T09:40:12;100814.00;;;20.02;30.54
37792;BME280;29527;55.766;37.570;2023-05-20T09:42:49;100808.16;;;20.23;30.34
37792;BME280;29527;55.766;37.570;2023-05-20T09:45:17;100800.03;;;20.31;30.29
37792;BME280;29527;55.766;37.570;2023-05-20T09:47:43;100808.03;;;20.41;30.00
37792;BME280;29527;55.766;37.570;2023-05-20T09:50:10;100799.75;;;20.51;29.97
37792;BME280;29527;55.766;37.570;2023-05-20T09:52:37;100806.75;;;20.70;29.72
37792;BME280;29527;55.766;37.570;2023-05-20T09:55:08;100814.84;;;20.88;29.65
37792;BME280;29527;55.766;37.570;2023-05-20T09:57:36;100801.25;;;20.88;29.38
37792;BME280;29527;55.766;37.570;2023-05-20T10:00:03;100814.81;;;20.80;29.33
37792;BME280;29527;55.766;37.570;2023-05-20T10:02:32;100807.44;;;20.64;29.83
37792;BME280;29527;55.766;37.570;2023-05-20T10:05:03;100809.63;;;20.60;29.54
37792;BME280;29527;55.766;37.570;2023-05-20T10:07:56;100811.88;;;20.73;29.77
37792;BME280;29527;55.766;37.570;2023-05-20T10:18:43;100820.06;;;19.69;30.41
37792;BME280;29527;55.766;37.570;2023-05-20T10:21:16;100828.16;;;19.87;30.17
37792;BME280;29527;55.766;37.570;2023-05-20T10:23:43;100818.22;;;19.96;30.42
37792;BME280;29527;55.766;37.570;2023-05-20T10:26:08;100813.06;;;20.19;30.51
37792;BME280;29527;55.766;37.570;2023-05-20T10:28:35;100824.00;;;20.28;30.14
37792;BME280;29527;55.766;37.570;2023-05-20T10:31:02;100814.34;;;20.42;29.96
37792;BME280;29527;55.766;37.570;2023-05-20T10:33:29;100805.66;;;20.38;29.75
37792;BME280;29527;55.766;37.570;2023-05-20T10:35:59;100824.78;;;20.71;28.90
37792;BME280;29527;55.766;37.570;2023-05-20T10:38:25;100818.47;;;20.54;28.89
37792;BME280;29527;55.766;37.570;2023-05-20T10:40:51;100821.66;;;20.49;29.23
37792;BME280;29527;55.766;37.570;2023-05-20T10:43:27;100826.13;;;20.59;28.71
37792;BME280;29527;55.766;37.570;2023-05-20T10:45:54;100824.00;;;20.28;29.16
37792;BME280;29527;55.766;37.570;2023-05-20T10:50:46;100814.00;;;20.02;29.34
37792;BME280;29527;55.766;37.570;2023-05-20T10:53:14;100820.22;;;19.68;30.22
37792;BME280;29527;55.766;37.570;2023-05-20T10:55:40;100822.75;;;19.43;31.05
37792;BME280;29527;55.766;37.570;2023-05-20T10:58:13;100817.03;;;19.28;31.10
37792;BME280;29527;55.766;37.570;2023-05-20T11:00:39;100822.78;;;19.25;30.49
37792;BME280;29527;55.766;37.570;2023-05-20T11:03:05;100813.63;;;19.26;30.50
37792;BME280;29527;55.766;37.570;2023-05-20T11:05:31;100809.94;;;19.35;30.16
37792;BME280;29527;55.766;37.570;2023-05-20T11:08:06;100820.09;;;19.51;30.25
37792;BME280;29527;55.766;37.570;2023-05-20T11:10:35;100830.09;;;19.50;30.14
37792;BME280;29527;55.766;37.570;2023-05-20T11:13:02;100823.34;;;19.55;29.83
37792;BME280;29527;55.766;37.570;2023-05-20T11:15:29;100816.66;;;19.67;29.87
37792;BME280;29527;55.766;37.570;2023-05-20T11:17:58;100816.22;;;19.80;29.83
37792;BME280;29527;55.766;37.570;2023-05-20T11:20:24;100801.03;;;19.69;29.87
37792;BME280;29527;55.766;37.570;2023-05-20T11:22:51;100823.28;;;19.91;29.84
37792;BME280;29527;55.766;37.570;2023-05-20T11:25:17;100818.56;;;20.01;29.76
37792;BME280;29527;55.766;37.570;2023-05-20T11:27:44;100825.59;;;20.12;29.84
37792;BME280;29527;55.766;37.570;2023-05-20T11:30:13;100819.28;;;20.12;29.45
37792;BME280;29527;55.766;37.570;2023-05-20T11:32:43;100791.59;;;20.08;29.62
37792;BME280;29527;55.766;37.570;2023-05-20T11:35:25;100828.44;;;20.37;29.76
37792;BME280;29527;55.766;37.570;2023-05-20T11:37:54;100837.13;;;20.06;30.46
37792;BME280;29527;55.766;37.570;2023-05-20T11:40:23;100823.81;;;19.94;30.30
37792;BME280;29527;55.766;37.570;2023-05-20T11:42:54;100811.09;;;19.77;30.13
37792;BME280;29527;55.766;37.570;2023-05-20T11:45:21;100805.38;;;19.62;30.23
37792;BME280;29527;55.766;37.570;2023-05-20T11:47:57;100836.69;;;19.92;30.00
37792;BME280;29527;55.766;37.570;2023-05-20T11:50:23;100826.66;;;19.67;30.06
37792;BME280;29527;55.766;37.570;2023-05-20T11:52:56;100838.75;;;19.72;30.05
37792;BME280;29527;55.766;37.570;2023-05-20T11:55:21;100821.88;;;19.60;29.65
37792;BME280;29527;55.766;37.570;2023-05-20T11:57:47;100817.16;;;19.44;29.83
37792;BME280;29527;55.766;37.570;2023-05-20T12:00:12;100824.13;;;19.47;29.80
37792;BME280;29527;55.766;37.570;2023-05-20T12:02:38;100820.47;;;19.56;29.79
37792;BME280;29527;55.766;37.570;2023-05-20T12:05:04;100814.97;;;19.66;29.51
37792;BME280;29527;55.766;37.570;2023-05-20T12:07:29;100812.97;;;19.76;28.85
37792;BME280;29527;55.766;37.570;2023-05-20T12:09:55;100825.25;;;19.89;28.62
37792;BME280;29527;55.766;37.570;2023-05-20T12:12:20;100814.63;;;19.96;28.42
37792;BME280;29527;55.766;37.570;2023-05-20T12:14:46;100814.03;;;20.10;28.09
37792;BME280;29527;55.766;37.570;2023-05-20T12:17:11;100807.97;;;20.25;28.20
37792;BME280;29527;55.766;37.570;2023-05-20T12:19:38;100828.84;;;20.16;28.04
37792;BME280;29527;55.766;37.570;2023-05-20T12:22:03;100812.81;;;20.04;28.26
37792;BME280;29527;55.766;37.570;2023-05-20T12:24:29;100801.31;;;19.84;27.97
37792;BME280;29527;55.766;37.570;2023-05-20T12:26:54;100826.28;;;19.88;27.87
37792;BME280;29527;55.766;37.570;2023-05-20T12:29:19;100823.88;;;19.85;27.92
37792;BME280;29527;55.766;37.570;2023-05-20T12:31:45;100820.16;;;19.86;28.21
37792;BME280;29527;55.766;37.570;2023-05-20T12:34:11;100787.56;;;19.59;27.81
37792;BME280;29527;55.766;37.570;2023-05-20T12:36:36;100819.19;;;19.69;27.89
37792;BME280;29527;55.766;37.570;2023-05-20T12:39:02;100811.66;;;19.54;28.13
37792;BME280;29527;55.766;37.570;2023-05-20T12:41:27;100813.03;;;19.40;28.31
37792;BME280;29527;55.766;37.570;2023-05-20T12:43:53;100811.03;;;19.24;28.61
37792;BME280;29527;55.766;37.570;2023-05-20T12:46:19;100827.56;;;18.94;28.83
37792;BME280;29527;55.766;37.570;2023-05-20T12:48:44;100815.66;;;18.77;29.33
37792;BME280;29527;55.766;37.570;2023-05-20T12:51:10;100826.75;;;18.66;30.06
37792;BME280;29527;55.766;37.570;2023-05-20T12:53:35;100827.56;;;18.48;30.23